Time;durP1;ratioP1;P1;durP2;ratioP2;P2;SDS_P1;SDS_P2;PMS_P1;PMS_P2;Temp;Humidity;BMP_temperature;BMP_pressure;BME280_temperature;BME280_humidity;BME280_pressure;Samples;Min_cycle;Max_cycle;Signal;HPM_P1;HPM_P2
2023/05/16 00:01:53;;;;;;;15.82;2.67;;;8.50;99.90;;;;;;5078303;28;20510;-57
2023/05/16 00:04:19;;;;;;;16.00;2.47;;;8.50;99.90;;;;;;5076182;28;20028;-57
2023/05/16 00:06:44;;;;;;;18.38;2.28;;;8.50;99.90;;;;;;5078249;28;20045;-58
2023/05/16 00:09:10;;;;;;;16.83;2.58;;;8.40;99.90;;;;;;5077096;28;20127;-57
2023/05/16 00:11:36;;;;;;;15.27;2.42;;;8.40;99.90;;;;;;5077006;28;20044;-58
2023/05/16 00:14:01;;;;;;;13.73;2.30;;;8.40;99.90;;;;;;5077925;28;20052;-58
2023/05/16 00:16:28;;;;;;;14.52;2.38;;;8.40;99.90;;;;;;5076167;28;20052;-57
2023/05/16 00:18:56;;;;;;;13.25;1.75;;;8.40;99.90;;;;;;5078080;28;20051;-57
2023/05/16 00:21:23;;;;;;;16.27;2.60;;;8.40;99.90;;;;;;5076108;28;20446;-57
2023/05/16 00:23:50;;;;;;;12.70;2.53;;;8.30;99.90;;;;;;5078245;28;20435;-58
2023/05/16 00:26:15;;;;;;;15.85;2.47;;;8.30;99.90;;;;;;5076367;28;20044;-57
2023/05/16 00:28:41;;;;;;;11.57;1.88;;;8.30;99.90;;;;;;5076920;28;20071;-57
2023/05/16 00:31:07;;;;;;;15.45;2.28;;;8.30;99.90;;;;;;5077405;28;20119;-58
2023/05/16 00:33:33;;;;;;;12.02;2.10;;;8.30;99.90;;;;;;5076087;28;20075;-57
2023/05/16 00:35:59;;;;;;;14.10;2.72;;;8.30;99.90;;;;;;5078112;28;20119;-58
2023/05/16 00:38:25;;;;;;;10.68;2.42;;;8.30;99.90;;;;;;5075847;28;20044;-57
2023/05/16 00:40:51;;;;;;;15.80;2.13;;;8.30;99.90;;;;;;5078104;28;20438;-57
2023/05/16 00:43:16;;;;;;;14.05;2.13;;;8.40;99.90;;;;;;5079448;28;20045;-57
2023/05/16 00:45:43;;;;;;;14.07;2.05;;;8.30;99.90;;;;;;5080640;28;20051;-58
2023/05/16 00:48:09;;;;;;;19.40;2.65;;;8.30;99.90;;;;;;5080955;28;20049;-58
2023/05/16 00:50:36;;;;;;;12.32;2.30;;;8.30;99.90;;;;;;5079617;28;20052;-58
2023/05/16 00:53:02;;;;;;;16.80;2.33;;;8.30;99.90;;;;;;5081300;28;20051;-57
2023/05/16 00:55:28;;;;;;;13.20;2.63;;;8.30;99.90;;;;;;5079249;28;20045;-57
2023/05/16 00:57:54;;;;;;;17.50;3.65;;;8.30;99.90;;;;;;5081420;28;20055;-58
2023/05/16 01:00:20;;;;;;;13.13;2.47;;;8.20;99.90;;;;;;5061217;28;20063;-57
2023/05/16 01:02:47;;;;;;;7.22;1.50;;;8.10;99.90;;;;;;5080745;28;20070;-57
2023/05/16 01:05:12;;;;;;;14.15;2.10;;;8.30;99.90;;;;;;5080493;28;20123;-57
2023/05/16 01:07:38;;;;;;;13.52;2.08;;;8.30;99.90;;;;;;5079398;28;20550;-57
2023/05/16 01:10:06;;;;;;;11.57;2.17;;;8.10;99.90;;;;;;5080862;28;20045;-57
2023/05/16 01:12:38;;;;;;;11.30;2.25;;;8.20;99.90;;;;;;5078859;28;20535;-58
2023/05/16 01:15:20;;;;;;;21.25;3.22;;;8.20;99.90;;;;;;5081359;28;20052;-57
2023/05/16 01:17:52;;;;;;;15.82;2.80;;;8.10;99.90;;;;;;5079897;28;20106;-57
2023/05/16 01:20:42;;;;;;;13.63;2.08;;;8.10;99.90;;;;;;5079715;28;20044;-57
2023/05/16 01:23:23;;;;;;;13.05;2.17;;;8.10;99.90;;;;;;5080741;28;20426;-57
2023/05/16 01:26:16;;;;;;;14.85;2.28;;;8.00;99.90;;;;;;5052004;28;20076;-57
2023/05/16 01:28:45;;;;;;;15.20;2.25;;;8.00;99.90;;;;;;5024371;28;20060;-57
2023/05/16 01:31:11;;;;;;;15.38;2.25;;;8.10;99.90;;;;;;5060004;28;20497;-57
2023/05/16 01:33:37;;;;;;;15.05;2.50;;;8.00;99.90;;;;;;5058273;28;20053;-58
2023/05/16 01:36:05;;;;;;;15.95;3.38;;;8.00;99.90;;;;;;5060673;28;20064;-57
2023/05/16 01:38:48;;;;;;;14.30;2.42;;;8.00;99.90;;;;;;5058502;28;20052;-57
2023/05/16 01:41:17;;;;;;;11.68;1.73;;;8.00;99.90;;;;;;5060232;28;20049;-57
2023/05/16 01:43:47;;;;;;;10.40;2.13;;;8.00;99.90;;;;;;5059653;28;20045;-57
2023/05/16 01:46:24;;;;;;;16.23;2.60;;;8.00;99.90;;;;;;5058712;28;20100;-57
2023/05/16 01:48:57;;;;;;;18.08;3.63;;;8.00;99.90;;;;;;5060515;28;20080;-58
2023/05/16 01:51:26;;;;;;;13.15;2.15;;;7.90;99.90;;;;;;5058296;28;20079;-57
2023/05/16 01:54:01;;;;;;;14.95;1.90;;;7.90;99.90;;;;;;5059310;28;20045;-57
2023/05/16 01:56:28;;;;;;;16.05;2.17;;;7.80;99.90;;;;;;5059252;28;20044;-57
2023/05/16 01:58:56;;;;;;;16.40;2.38;;;7.80;99.90;;;;;;5058569;28;20053;-58
2023/05/16 02:01:22;;;;;;;14.48;3.08;;;7.80;99.90;;;;;;5059636;28;20045;-57
2023/05/16 02:03:47;;;;;;;16.95;2.60;;;7.70;99.90;;;;;;5039932;28;20056;-57
2023/05/16 02:06:13;;;;;;;12.15;2.40;;;7.70;99.90;;;;;;5042255;28;20084;-57
2023/05/16 02:08:39;;;;;;;15.82;2.30;;;7.80;99.90;;;;;;5058126;28;20049;-57
2023/05/16 02:11:05;;;;;;;14.02;2.88;;;7.70;99.90;;;;;;5059734;28;20048;-58
2023/05/16 02:13:30;;;;;;;21.10;2.90;;;7.70;99.90;;;;;;5059056;28;20036;-57
2023/05/16 02:15:56;;;;;;;14.07;2.20;;;7.70;99.90;;;;;;5058580;28;20048;-57
2023/05/16 02:18:22;;;;;;;13.38;2.50;;;7.90;99.90;;;;;;5059634;28;20041;-57
2023/05/16 02:20:48;;;;;;;13.50;2.55;;;7.90;99.90;;;;;;5057910;28;20045;-57
2023/05/16 02:23:14;;;;;;;15.73;3.22;;;8.10;99.90;;;;;;5059998;28;20101;-57
2023/05/16 02:25:40;;;;;;;13.75;2.53;;;8.10;99.90;;;;;;5057287;28;20049;-57
2023/05/16 02:28:06;;;;;;;12.93;3.17;;;8.00;99.90;;;;;;5059651;28;20045;-57
2023/05/16 02:30:32;;;;;;;14.50;2.53;;;8.00;99.90;;;;;;5058067;28;20045;-57
2023/05/16 02:32:57;;;;;;;17.23;2.80;;;8.10;99.90;;;;;;5058177;28;20504;-57
2023/05/16 02:35:23;;;;;;;13.98;2.40;;;8.00;99.90;;;;;;5059070;28;20055;-57
2023/05/16 02:37:49;;;;;;;16.33;2.20;;;8.00;99.90;;;;;;5057572;28;20052;-57
2023/05/16 02:40:14;;;;;;;20.17;2.70;;;8.00;99.90;;;;;;5041443;28;20041;-57
2023/05/16 02:42:40;;;;;;;13.35;2.70;;;8.10;99.90;;;;;;5039649;28;20040;-57
2023/05/16 02:45:06;;;;;;;9.70;2.30;;;8.00;99.90;;;;;;5041658;28;20104;-57
2023/05/16 02:47:32;;;;;;;12.23;2.20;;;8.10;99.90;;;;;;5023219;28;20080;-57
2023/05/16 02:49:57;;;;;;;13.32;2.38;;;8.10;99.90;;;;;;5058477;28;20044;-57
2023/05/16 02:52:23;;;;;;;13.20;2.13;;;8.10;99.90;;;;;;5058640;28;20083;-57
2023/05/16 02:54:49;;;;;;;12.43;2.30;;;8.10;99.90;;;;;;5057107;28;20056;-58
2023/05/16 02:57:15;;;;;;;10.00;2.38;;;8.00;99.90;;;;;;5041141;28;20041;-57
2023/05/16 02:59:40;;;;;;;17.05;2.30;;;7.90;99.90;;;;;;5056662;28;20408;-58
2023/05/16 03:02:06;;;;;;;12.10;2.10;;;7.80;99.90;;;;;;5059414;28;20055;-57
2023/05/16 03:04:32;;;;;;;11.60;1.95;;;7.80;99.90;;;;;;5056891;28;20037;-57
2023/05/16 03:06:59;;;;;;;17.70;2.40;;;7.80;99.90;;;;;;5058183;28;20090;-57
2023/05/16 03:09:25;;;;;;;12.07;1.90;;;7.80;99.90;;;;;;5058228;28;20045;-57
2023/05/16 03:11:50;;;;;;;20.95;2.53;;;7.90;99.90;;;;;;5057141;28;20052;-57
2023/05/16 03:14:16;;;;;;;10.10;2.25;;;7.80;99.90;;;;;;5058741;28;20259;-58
2023/05/16 03:16:42;;;;;;;13.48;2.75;;;7.80;99.90;;;;;;5056946;28;20069;-56
2023/05/16 03:19:09;;;;;;;10.95;2.03;;;7.80;99.90;;;;;;5058817;28;20041;-57
2023/05/16 03:21:35;;;;;;;17.52;3.28;;;7.70;99.90;;;;;;5056860;28;20044;-57
2023/05/16 03:24:02;;;;;;;8.15;1.80;;;7.80;99.90;;;;;;5058240;28;20139;-57
2023/05/16 03:26:28;;;;;;;11.85;2.42;;;7.70;99.90;;;;;;5064912;28;20067;-57
2023/05/16 03:28:54;;;;;;;11.30;2.03;;;7.80;99.90;;;;;;5059142;28;20052;-56
2023/05/16 03:31:19;;;;;;;9.73;1.70;;;7.70;99.90;;;;;;5078236;28;20052;-57
2023/05/16 03:33:45;;;;;;;14.65;3.38;;;7.70;99.90;;;;;;5076356;28;20048;-57
2023/05/16 03:36:11;;;;;;;11.68;2.75;;;7.60;99.90;;;;;;5060624;28;20051;-57
2023/05/16 03:38:37;;;;;;;13.52;1.77;;;7.60;99.90;;;;;;5076493;28;20103;-58
2023/05/16 03:41:02;;;;;;;12.30;2.20;;;7.60;99.90;;;;;;5060293;28;20059;-57
2023/05/16 03:43:28;;;;;;;11.75;2.00;;;7.60;99.90;;;;;;5077678;28;20099;-56
2023/05/16 03:45:54;;;;;;;10.93;1.67;;;7.70;99.90;;;;;;5077021;28;20053;-57
2023/05/16 03:48:20;;;;;;;12.32;2.72;;;7.70;99.90;;;;;;5078258;28;20055;-57
2023/05/16 03:50:46;;;;;;;11.43;2.17;;;7.70;99.90;;;;;;5076224;28;20040;-57
2023/05/16 03:53:12;;;;;;;8.50;1.73;;;7.70;99.90;;;;;;5078596;28;20082;-57
2023/05/16 03:55:38;;;;;;;10.63;2.25;;;7.60;99.90;;;;;;5076393;28;20072;-57
2023/05/16 03:58:04;;;;;;;8.65;1.95;;;7.60;99.90;;;;;;5078331;28;20136;-57
2023/05/16 04:00:30;;;;;;;16.23;1.70;;;7.70;99.90;;;;;;5077159;28;20445;-57
2023/05/16 04:02:55;;;;;;;11.40;2.35;;;7.70;99.90;;;;;;5058955;28;20040;-57
2023/05/16 04:05:21;;;;;;;9.93;1.77;;;7.70;99.90;;;;;;5078009;28;20067;-57
2023/05/16 04:07:47;;;;;;;7.25;1.88;;;7.80;99.90;;;;;;5058162;28;20052;-57
2023/05/16 04:10:13;;;;;;;12.75;2.00;;;7.70;99.90;;;;;;5078273;28;20051;-57
2023/05/16 04:12:39;;;;;;;11.15;1.70;;;7.80;99.90;;;;;;5076273;28;20128;-57
2023/05/16 04:15:06;;;;;;;11.63;1.60;;;7.80;99.90;;;;;;5078151;28;20408;-58
2023/05/16 04:17:32;;;;;;;11.88;1.58;;;7.70;99.90;;;;;;5061102;28;20049;-58
2023/05/16 04:19:59;;;;;;;7.75;1.60;;;7.70;99.90;;;;;;5080916;28;20052;-57
2023/05/16 04:22:25;;;;;;;6.78;1.25;;;7.80;99.90;;;;;;5081598;28;20044;-57
2023/05/16 04:24:51;;;;;;;15.05;2.05;;;7.80;99.90;;;;;;5062225;28;20033;-57
2023/05/16 04:27:16;;;;;;;10.38;1.85;;;7.80;99.90;;;;;;5067692;28;20398;-58
2023/05/16 04:29:43;;;;;;;13.13;2.20;;;7.90;99.90;;;;;;5059598;28;20052;-57
2023/05/16 04:32:09;;;;;;;9.32;1.83;;;8.00;99.90;;;;;;5062054;28;20120;-58
2023/05/16 04:34:36;;;;;;;10.98;1.52;;;8.10;99.90;;;;;;5060063;28;20048;-57
2023/05/16 04:37:04;;;;;;;10.98;1.45;;;8.10;99.90;;;;;;5061095;28;20503;-57
2023/05/16 04:39:30;;;;;;;6.72;1.33;;;8.20;99.90;;;;;;5061320;28;20037;-57
2023/05/16 04:41:58;;;;;;;13.27;1.83;;;8.20;99.90;;;;;;5059915;28;20069;-57
2023/05/16 04:44:25;;;;;;;11.73;1.70;;;8.20;99.90;;;;;;5061521;28;20068;-57
2023/05/16 04:46:52;;;;;;;8.20;1.58;;;8.30;99.90;;;;;;5059276;28;20500;-57
2023/05/16 04:49:18;;;;;;;13.35;1.67;;;8.40;99.90;;;;;;5061442;28;20056;-57
2023/05/16 04:51:44;;;;;;;8.82;1.50;;;8.40;99.90;;;;;;5059984;28;20052;-57
2023/05/16 04:54:09;;;;;;;10.23;1.80;;;8.50;99.90;;;;;;5060415;28;20033;-57
2023/05/16 04:56:35;;;;;;;12.45;1.88;;;8.50;99.90;;;;;;5060807;28;20530;-57
2023/05/16 04:59:03;;;;;;;11.15;1.63;;;8.50;99.90;;;;;;5059729;28;20041;-57
2023/05/16 05:01:29;;;;;;;11.48;1.70;;;8.50;99.90;;;;;;5060820;28;20059;-57
2023/05/16 05:03:54;;;;;;;10.00;1.70;;;8.60;99.90;;;;;;5058859;28;20048;-57
2023/05/16 05:06:20;;;;;;;8.57;1.83;;;8.70;99.90;;;;;;5061264;28;20040;-57
2023/05/16 05:08:46;;;;;;;7.07;1.23;;;8.80;99.90;;;;;;5059546;28;20049;-56
2023/05/16 05:11:12;;;;;;;14.20;1.98;;;9.10;99.90;;;;;;5060630;28;20069;-57
2023/05/16 05:13:37;;;;;;;14.90;1.40;;;9.10;99.90;;;;;;5060474;28;20498;-57
2023/05/16 05:16:04;;;;;;;11.07;1.60;;;9.20;99.90;;;;;;5059345;28;20081;-57
2023/05/16 05:18:30;;;;;;;9.77;1.25;;;9.20;99.90;;;;;;5060589;28;20053;-57
2023/05/16 05:20:56;;;;;;;10.93;1.70;;;9.20;99.90;;;;;;5058662;28;20248;-57
2023/05/16 05:23:22;;;;;;;7.80;1.30;;;9.30;99.90;;;;;;5060957;28;20041;-57
2023/05/16 05:25:49;;;;;;;13.30;1.85;;;9.40;99.90;;;;;;5041083;28;20099;-57
2023/05/16 05:28:15;;;;;;;9.18;1.85;;;9.60;99.90;;;;;;5060189;28;20101;-58
2023/05/16 05:30:41;;;;;;;10.43;2.70;;;9.70;99.90;;;;;;5059852;28;20059;-57
2023/05/16 05:33:06;;;;;;;13.95;1.75;;;9.90;99.90;;;;;;5041042;28;20041;-57
2023/05/16 05:35:32;;;;;;;12.40;2.08;;;10.20;99.90;;;;;;5060170;28;20420;-57
2023/05/16 05:37:58;;;;;;;12.65;1.80;;;10.40;99.90;;;;;;5058328;28;20044;-57
2023/05/16 05:40:23;;;;;;;10.52;1.88;;;10.20;99.90;;;;;;5060655;28;20055;-57
2023/05/16 05:42:49;;;;;;;8.35;1.70;;;10.00;99.90;;;;;;5058727;28;20044;-57
2023/05/16 05:45:15;;;;;;;13.07;1.92;;;9.70;99.90;;;;;;5060179;28;20076;-59
2023/05/16 05:47:41;;;;;;;8.35;2.10;;;9.60;99.90;;;;;;5059044;28;20044;-58
2023/05/16 05:50:08;;;;;;;11.02;1.65;;;9.40;99.90;;;;;;5059163;28;20056;-58
2023/05/16 05:52:33;;;;;;;8.82;1.23;;;9.30;99.90;;;;;;5060001;28;20489;-58
2023/05/16 05:54:59;;;;;;;9.57;1.50;;;9.40;99.90;;;;;;5058319;28;20049;-57
2023/05/16 05:57:25;;;;;;;8.50;1.40;;;9.60;99.90;;;;;;5060444;28;20037;-57
2023/05/16 05:59:51;;;;;;;12.77;1.73;;;9.80;99.90;;;;;;5058059;28;20041;-58
2023/05/16 06:02:16;;;;;;;10.10;1.45;;;10.00;99.90;;;;;;5060022;28;20037;-57
2023/05/16 06:04:44;;;;;;;9.70;1.30;;;9.80;99.90;;;;;;5058959;28;20069;-57
2023/05/16 06:07:09;;;;;;;6.43;1.05;;;9.50;99.90;;;;;;5058923;28;20104;-57
2023/05/16 06:09:35;;;;;;;3.70;0.80;;;9.40;99.90;;;;;;5059861;28;20041;-58
2023/05/16 06:12:01;;;;;;;5.22;0.75;;;9.30;99.90;;;;;;5058104;28;20047;-57
2023/05/16 06:14:26;;;;;;;7.88;1.00;;;9.60;99.90;;;;;;5041972;28;20055;-57
2023/05/16 06:16:52;;;;;;;3.58;0.80;;;9.70;99.90;;;;;;5057294;28;20406;-57
2023/05/16 06:19:17;;;;;;;8.13;1.00;;;9.80;99.90;;;;;;5059941;28;20044;-57
2023/05/16 06:21:44;;;;;;;9.95;1.00;;;10.00;99.90;;;;;;5058280;28;20051;-57
2023/05/16 06:24:11;;;;;;;7.53;2.03;;;10.20;99.90;;;;;;5058704;28;20072;-58
2023/05/16 06:26:36;;;;;;;6.20;1.13;;;10.30;99.90;;;;;;5058827;28;20056;-58
2023/05/16 06:29:02;;;;;;;10.65;1.60;;;10.20;99.90;;;;;;5057685;28;20107;-57
2023/05/16 06:31:28;;;;;;;9.95;1.95;;;9.80;99.90;;;;;;5059310;28;20088;-57
2023/05/16 06:33:54;;;;;;;7.40;1.20;;;9.70;99.90;;;;;;5057312;28;20052;-58
2023/05/16 06:36:19;;;;;;;11.10;2.17;;;9.70;99.90;;;;;;5041735;28;20047;-58
2023/05/16 06:38:45;;;;;;;6.93;1.35;;;9.60;99.90;;;;;;5057691;28;20100;-57
2023/05/16 06:41:11;;;;;;;6.63;1.42;;;9.50;99.90;;;;;;5058331;28;20189;-58
2023/05/16 06:43:36;;;;;;;9.48;1.30;;;9.60;99.90;;;;;;5058685;28;20388;-58
2023/05/16 06:46:02;;;;;;;10.25;1.42;;;9.50;99.90;;;;;;5057728;28;20049;-57
2023/05/16 06:48:28;;;;;;;9.90;1.50;;;9.70;99.90;;;;;;5059335;28;20458;-57
2023/05/16 06:50:54;;;;;;;11.60;1.88;;;9.90;99.90;;;;;;5057014;28;20152;-57
2023/05/16 06:53:20;;;;;;;10.05;1.80;;;10.20;99.90;;;;;;5059442;28;20037;-57
2023/05/16 06:55:46;;;;;;;15.15;2.03;;;10.50;99.90;;;;;;5057137;28;20108;-56
2023/05/16 06:58:12;;;;;;;11.85;1.80;;;10.60;99.90;;;;;;5058606;28;20051;-57
2023/05/16 07:00:38;;;;;;;11.10;2.35;;;10.20;99.90;;;;;;5057757;28;20088;-58
2023/05/16 07:03:04;;;;;;;13.85;1.90;;;10.40;99.90;;;;;;5057576;28;20072;-57
2023/05/16 07:05:30;;;;;;;10.98;2.00;;;10.30;99.90;;;;;;5058802;28;20041;-57
2023/05/16 07:07:56;;;;;;;10.35;1.58;;;10.20;99.90;;;;;;5056697;28;20056;-57
2023/05/16 07:10:22;;;;;;;14.52;2.28;;;10.00;99.90;;;;;;5058973;28;20561;-57
2023/05/16 07:12:48;;;;;;;8.35;1.58;;;9.80;99.90;;;;;;5056885;28;20055;-58
2023/05/16 07:15:13;;;;;;;8.32;1.70;;;10.00;99.90;;;;;;5040607;28;20041;-58
2023/05/16 07:17:39;;;;;;;10.88;1.52;;;10.20;99.90;;;;;;5057854;28;20102;-57
2023/05/16 07:20:06;;;;;;;13.75;1.88;;;10.10;99.90;;;;;;5057418;28;20037;-57
2023/05/16 07:22:32;;;;;;;86.63;11.35;;;10.00;99.90;;;;;;5058374;28;20042;-57
2023/05/16 07:24:59;;;;;;;12.20;1.92;;;9.90;99.90;;;;;;5056453;28;20060;-58
2023/05/16 07:27:26;;;;;;;13.55;1.58;;;10.00;99.90;;;;;;5088814;28;20056;-58
2023/05/16 07:29:52;;;;;;;10.25;1.63;;;10.40;99.90;;;;;;5096594;28;20116;-57
2023/05/16 07:32:18;;;;;;;12.85;1.85;;;10.30;99.90;;;;;;5098745;28;20067;-57
2023/05/16 07:34:44;;;;;;;7.63;1.33;;;10.50;99.90;;;;;;5063049;28;20131;-58
2023/05/16 07:37:11;;;;;;;8.32;1.63;;;10.60;99.90;;;;;;5079454;28;20040;-58
2023/05/16 07:39:40;;;;;;;10.48;1.55;;;10.60;99.90;;;;;;5080432;28;20056;-58
2023/05/16 07:42:07;;;;;;;10.80;1.50;;;10.60;99.90;;;;;;5078467;28;20071;-57
2023/05/16 07:44:33;;;;;;;9.38;1.83;;;10.60;99.90;;;;;;5098976;28;20040;-58
2023/05/16 07:46:59;;;;;;;10.88;1.60;;;10.40;99.90;;;;;;5096649;28;20051;-58
2023/05/16 07:49:25;;;;;;;8.73;1.27;;;10.80;99.90;;;;;;5098717;28;20044;-58
2023/05/16 07:51:50;;;;;;;8.93;1.63;;;11.00;99.90;;;;;;5098842;28;20066;-59
2023/05/16 07:54:16;;;;;;;10.70;1.50;;;11.00;99.90;;;;;;5101582;28;20044;-59
2023/05/16 07:56:42;;;;;;;10.63;1.60;;;10.90;99.90;;;;;;5102222;28;20051;-58
2023/05/16 07:59:08;;;;;;;12.40;1.90;;;11.20;99.90;;;;;;5100817;28;20044;-59
2023/05/16 08:01:34;;;;;;;8.20;1.50;;;11.00;99.90;;;;;;5102729;28;20047;-58
2023/05/16 08:04:00;;;;;;;8.55;1.92;;;11.10;99.90;;;;;;5100712;28;20032;-59
2023/05/16 08:06:26;;;;;;;12.65;1.80;;;10.90;99.90;;;;;;5102722;28;20078;-60
2023/05/16 08:08:51;;;;;;;40.65;5.22;;;10.60;99.90;;;;;;5101433;28;20043;-59
2023/05/16 08:11:18;;;;;;;12.40;1.90;;;10.30;99.90;;;;;;5101431;28;20525;-58
2023/05/16 08:13:44;;;;;;;15.73;2.03;;;10.50;99.90;;;;;;5102202;28;20069;-58
2023/05/16 08:16:10;;;;;;;9.27;1.27;;;10.60;99.90;;;;;;5100632;28;20643;-58
2023/05/16 08:18:36;;;;;;;32.35;6.05;;;10.90;99.90;;;;;;5102378;28;20553;-58
2023/05/16 08:21:02;;;;;;;13.95;2.50;;;10.90;99.90;;;;;;5100413;28;20095;-58
2023/05/16 08:23:27;;;;;;;6.40;1.60;;;11.20;99.90;;;;;;5084391;28;20052;-58
2023/05/16 08:25:53;;;;;;;57.65;8.70;;;11.30;99.90;;;;;;5082049;28;20564;-57
2023/05/16 08:28:19;;;;;;;12.35;2.72;;;11.10;99.90;;;;;;5101358;28;20063;-58
2023/05/16 08:30:45;;;;;;;12.10;1.40;;;11.20;99.90;;;;;;5101372;28;20048;-58
2023/05/16 08:33:11;;;;;;;8.80;1.50;;;11.00;99.90;;;;;;5100618;28;20051;-57
2023/05/16 08:35:36;;;;;;;10.13;1.95;;;11.00;99.90;;;;;;5102001;28;20044;-58
2023/05/16 08:38:02;;;;;;;13.32;1.55;;;11.40;99.90;;;;;;5081873;28;20032;-58
2023/05/16 08:40:28;;;;;;;7.43;1.10;;;11.60;99.90;;;;;;5102048;28;20036;-57
2023/05/16 08:42:54;;;;;;;12.45;2.00;;;11.50;99.90;;;;;;5100232;28;20044;-58
2023/05/16 08:45:22;;;;;;;10.68;1.40;;;11.80;99.90;;;;;;5101451;28;20028;-57
2023/05/16 08:47:50;;;;;;;47.17;5.60;;;11.80;99.90;;;;;;5083005;28;20052;-58
2023/05/16 08:50:16;;;;;;;9.20;1.65;;;11.70;99.90;;;;;;5099941;28;20048;-58
2023/05/16 08:52:43;;;;;;;11.55;1.35;;;11.40;99.90;;;;;;5101749;28;20032;-58
2023/05/16 08:55:10;;;;;;;12.18;1.65;;;11.30;99.90;;;;;;5099426;28;20044;-58
2023/05/16 08:57:37;;;;;;;10.52;1.80;;;11.70;99.90;;;;;;5101882;28;20074;-58
2023/05/16 09:00:10;;;;;;;8.98;1.73;;;11.60;99.90;;;;;;5099460;28;20040;-60
2023/05/16 09:02:40;;;;;;;10.93;2.10;;;11.30;99.90;;;;;;5100188;28;20043;-59
2023/05/16 09:05:10;;;;;;;8.98;1.80;;;11.20;99.90;;;;;;5101143;28;20036;-57
2023/05/16 09:07:36;;;;;;;11.00;1.90;;;11.50;99.90;;;;;;5099395;28;20054;-59
2023/05/16 09:10:02;;;;;;;10.20;1.98;;;11.60;99.90;;;;;;5101407;28;20484;-58
2023/05/16 09:12:27;;;;;;;11.30;2.72;;;11.10;99.90;;;;;;5099234;28;20050;-56
2023/05/16 09:14:55;;;;;;;7.88;1.88;;;10.90;99.90;;;;;;5101532;28;20044;-59
2023/05/16 09:17:20;;;;;;;11.80;2.55;;;11.00;99.90;;;;;;5099890;28;20040;-58
2023/05/16 09:19:49;;;;;;;8.57;1.58;;;11.60;99.90;;;;;;5100451;28;20064;-58
2023/05/16 09:22:15;;;;;;;13.00;1.80;;;12.10;99.90;;;;;;5100751;28;20043;-57
2023/05/16 09:24:42;;;;;;;98.70;13.23;;;11.60;99.90;;;;;;5099425;28;20063;-58
2023/05/16 09:27:12;;;;;;;21.15;3.60;;;11.60;99.90;;;;;;5101045;28;20086;-58
2023/05/16 09:29:42;;;;;;;16.20;2.45;;;11.80;99.90;;;;;;5098648;28;20556;-54
2023/05/16 09:32:13;;;;;;;10.75;1.58;;;11.90;99.90;;;;;;5101158;28;20043;-58
2023/05/16 09:34:50;;;;;;;14.82;1.85;;;11.80;99.90;;;;;;5099858;28;20067;-58
2023/05/16 09:37:19;;;;;;;7.05;1.40;;;11.90;99.90;;;;;;5099267;28;20052;-57
2023/05/16 09:39:53;;;;;;;10.50;2.40;;;11.40;99.90;;;;;;5100677;28;20085;-57
2023/05/16 09:42:20;;;;;;;9.90;1.90;;;11.30;99.90;;;;;;5098682;28;20032;-57
2023/05/16 09:44:52;;;;;;;11.13;2.17;;;11.20;99.90;;;;;;5101051;28;20044;-58
2023/05/16 09:47:18;;;;;;;11.13;1.58;;;11.40;99.90;;;;;;5099005;28;20268;-58
2023/05/16 09:49:45;;;;;;;10.50;2.03;;;11.80;99.90;;;;;;5100115;28;20040;-57
2023/05/16 09:52:12;;;;;;;9.30;1.92;;;11.90;99.90;;;;;;5100098;28;20044;-58
2023/05/16 09:54:38;;;;;;;11.00;1.58;;;11.70;99.90;;;;;;5098738;28;20040;-56
2023/05/16 09:57:04;;;;;;;12.10;1.60;;;12.00;99.90;;;;;;5100725;28;20073;-60
2023/05/16 09:59:39;;;;;;;10.50;1.58;;;12.00;99.90;;;;;;5097981;28;20047;-58
2023/05/16 10:02:06;;;;;;;11.25;1.50;;;12.10;99.90;;;;;;5100489;28;20044;-58
2023/05/16 10:04:35;;;;;;;15.50;2.13;;;11.30;99.90;;;;;;5099171;28;20123;-58
2023/05/16 10:07:03;;;;;;;8.40;1.40;;;11.50;99.90;;;;;;5099379;28;20379;-57
2023/05/16 10:09:32;;;;;;;8.95;2.28;;;12.00;99.90;;;;;;5100028;28;20101;-58
2023/05/16 10:12:05;;;;;;;8.02;1.30;;;12.20;99.90;;;;;;5098187;28;20043;-57
2023/05/16 10:14:35;;;;;;;13.95;1.90;;;12.00;99.90;;;;;;5099463;28;20036;-57
2023/05/16 10:17:03;;;;;;;11.70;1.83;;;12.30;99.90;;;;;;5098284;28;20511;-56
2023/05/16 10:19:31;;;;;;;8.40;1.30;;;12.20;99.90;;;;;;5081716;28;20051;-58
2023/05/16 10:21:59;;;;;;;14.38;1.63;;;12.10;99.90;;;;;;5080986;28;20040;-58
2023/05/16 10:24:43;;;;;;;10.10;1.70;;;12.40;99.90;;;;;;5098389;28;20050;-57
2023/05/16 10:27:10;;;;;;;7.97;1.23;;;12.80;99.90;;;;;;5099686;28;20118;-57
2023/05/16 10:29:37;;;;;;;9.68;1.50;;;12.70;99.90;;;;;;5097528;28;20108;-57
2023/05/16 10:32:05;;;;;;;10.18;1.60;;;12.20;99.90;;;;;;5100100;28;20044;-57
2023/05/16 10:34:31;;;;;;;9.30;1.35;;;11.90;99.90;;;;;;5098433;28;20044;-58
2023/05/16 10:36:58;;;;;;;9.32;1.52;;;12.00;99.90;;;;;;5098785;28;20048;-57
2023/05/16 10:39:24;;;;;;;12.15;1.40;;;12.10;99.90;;;;;;5099100;28;20067;-57
2023/05/16 10:41:50;;;;;;;7.32;1.77;;;12.30;99.90;;;;;;5097726;28;20044;-57
2023/05/16 10:44:16;;;;;;;8.70;1.13;;;12.20;99.90;;;;;;5099782;28;20399;-58
2023/05/16 10:46:42;;;;;;;8.75;1.75;;;12.30;99.90;;;;;;5097349;28;20051;-57
2023/05/16 10:49:22;;;;;;;10.13;1.40;;;12.20;99.90;;;;;;5099576;28;20043;-57
2023/05/16 10:52:08;;;;;;;6.88;1.35;;;12.20;99.90;;;;;;5098333;28;20090;-57
2023/05/16 10:54:39;;;;;;;11.02;1.83;;;12.30;99.90;;;;;;5097470;28;20047;-57
2023/05/16 10:57:17;;;;;;;9.02;2.17;;;12.60;99.90;;;;;;5099385;28;20040;-58
2023/05/16 10:59:47;;;;;;;10.63;1.60;;;12.80;99.90;;;;;;5079150;28;20056;-57
2023/05/16 11:02:31;;;;;;;9.30;1.45;;;12.70;99.90;;;;;;5099098;28;20440;-56
2023/05/16 11:04:58;;;;;;;11.10;1.70;;;12.20;99.90;;;;;;5098658;28;20435;-57
2023/05/16 11:07:25;;;;;;;9.30;1.80;;;12.40;99.90;;;;;;5097508;28;20130;-58
2023/05/16 11:10:08;;;;;;;8.38;1.42;;;12.20;99.90;;;;;;5099185;28;20040;-57
2023/05/16 11:12:49;;;;;;;;;;;12.60;99.90;;;;;;5097432;28;20078;-57
2023/05/16 11:15:22;;;;;;;8.75;1.60;;;12.50;99.90;;;;;;5098935;28;20010;-57
2023/05/16 11:17:48;;;;;;;9.40;1.85;;;12.70;99.90;;;;;;5080356;28;20048;-57
2023/05/16 11:20:37;;;;;;;13.95;2.03;;;12.60;99.90;;;;;;5097420;28;20028;-57
2023/05/16 11:23:18;;;;;;;10.35;1.85;;;12.30;99.90;;;;;;5099036;28;20082;-57
2023/05/16 11:25:59;;;;;;;7.60;2.15;;;12.30;99.90;;;;;;5097196;28;20112;-57
2023/05/16 11:28:26;;;;;;;12.63;1.70;;;12.30;99.90;;;;;;5097450;28;20064;-57
2023/05/16 11:30:55;;;;;;;9.15;1.90;;;12.70;99.90;;;;;;5098273;28;20286;-57
2023/05/16 11:33:21;;;;;;;9.82;2.47;;;12.70;99.90;;;;;;5096525;28;20040;-57
2023/05/16 11:36:04;;;;;;;11.23;2.30;;;12.60;99.90;;;;;;5099132;28;20737;-58
2023/05/16 11:38:31;;;;;;;10.32;1.77;;;12.40;99.90;;;;;;5096971;28;20048;-58
2023/05/16 11:41:02;;;;;;;11.38;2.03;;;12.90;99.90;;;;;;5080295;28;20373;-58
2023/05/16 11:43:28;;;;;;;6.97;1.77;;;12.40;99.90;;;;;;5098339;28;20048;-57
2023/05/16 11:45:55;;;;;;;12.40;2.90;;;12.30;99.90;;;;;;5078700;28;20051;-57
2023/05/16 11:48:23;;;;;;;11.20;2.78;;;12.30;99.90;;;;;;5080544;28;20539;-58
2023/05/16 11:50:49;;;;;;;8.93;2.05;;;12.70;99.90;;;;;;5096670;28;20407;-57
2023/05/16 11:53:16;;;;;;;10.13;3.17;;;12.60;99.90;;;;;;5098871;28;20465;-57
2023/05/16 11:55:41;;;;;;;9.77;2.50;;;12.30;99.90;;;;;;5078831;28;20058;-57
2023/05/16 11:58:07;;;;;;;11.55;2.50;;;12.40;99.90;;;;;;5098188;28;20067;-58
2023/05/16 12:00:33;;;;;;;9.05;2.88;;;12.70;99.90;;;;;;5097080;28;20427;-58
2023/05/16 12:03:03;;;;;;;9.80;2.70;;;12.50;99.90;;;;;;5096654;28;20087;-58
2023/05/16 12:05:31;;;;;;;7.97;2.13;;;12.60;99.90;;;;;;5098335;28;20044;-58
2023/05/16 12:07:58;;;;;;;16.65;2.92;;;12.80;99.90;;;;;;5061731;28;20044;-57
2023/05/16 12:10:24;;;;;;;10.90;2.50;;;12.70;99.90;;;;;;5098676;28;20521;-57
2023/05/16 12:12:52;;;;;;;37.58;6.63;;;12.70;99.90;;;;;;5096472;28;20040;-58
2023/05/16 12:15:19;;;;;;;71.47;9.32;;;12.80;99.90;;;;;;5079201;28;20051;-57
2023/05/16 12:17:46;;;;;;;19.75;4.40;;;13.00;99.90;;;;;;5097792;28;20052;-57
2023/05/16 12:20:15;;;;;;;25.92;3.67;;;12.50;99.90;;;;;;5096794;28;20036;-58
2023/05/16 12:22:42;;;;;;;9.60;2.15;;;12.40;99.90;;;;;;5098159;28;20582;-58
2023/05/16 12:25:30;;;;;;;9.63;2.13;;;12.80;99.90;;;;;;5096060;28;20070;-57
2023/05/16 12:28:01;;;;;;;13.07;2.35;;;12.50;99.90;;;;;;5097719;28;20067;-57
2023/05/16 12:30:29;;;;;;;13.55;2.70;;;12.40;99.90;;;;;;5097102;28;20108;-58
2023/05/16 12:33:00;;;;;;;12.38;2.58;;;12.30;99.90;;;;;;5096665;28;20044;-57
2023/05/16 12:35:32;;;;;;;9.40;2.50;;;12.00;99.90;;;;;;5097963;28;20044;-57
2023/05/16 12:37:58;;;;;;;11.68;3.13;;;11.60;99.90;;;;;;5097078;28;20048;-57
2023/05/16 12:40:28;;;;;;;9.68;3.40;;;11.40;99.90;;;;;;5102154;28;20250;-57
2023/05/16 12:42:54;;;;;;;8.35;2.58;;;11.70;99.90;;;;;;5082025;28;20494;-57
2023/05/16 12:45:22;;;;;;;8.52;2.60;;;11.80;99.90;;;;;;5101391;28;20050;-58
2023/05/16 12:47:48;;;;;;;7.25;2.70;;;11.70;99.90;;;;;;5101474;28;20052;-58